Time;durP1;ratioP1;P1;durP2;ratioP2;P2;SDS_P1;SDS_P2;PMS_P1;PMS_P2;Temp;Humidity;BMP_temperature;BMP_pressure;BME280_temperature;BME280_humidity;BME280_pressure;Samples;Min_cycle;Max_cycle;Signal;HPM_P1;HPM_P2
2021/05/20 00:00:23;;;;;;;12.77;9.50;;;9.10;97.20;;;;;;6212555;23;20426;-67
2021/05/20 00:02:49;;;;;;;11.38;9.82;;;9.10;97.30;;;;;;6211554;23;20001;-67
2021/05/20 00:05:16;;;;;;;12.88;11.20;;;9.10;97.30;;;;;;6213132;23;20008;-69
2021/05/20 00:07:42;;;;;;;14.70;10.43;;;9.10;97.30;;;;;;6212032;23;20017;-67
2021/05/20 00:10:08;;;;;;;11.90;10.75;;;9.10;97.30;;;;;;6213124;23;19997;-68
2021/05/20 00:12:34;;;;;;;11.88;10.57;;;9.10;97.40;;;;;;6214942;23;20035;-70
2021/05/20 00:15:00;;;;;;;12.88;11.00;;;9.10;97.30;;;;;;6214301;23;20029;-67
2021/05/20 00:17:26;;;;;;;15.20;12.15;;;9.00;97.30;;;;;;6215435;23;20008;-67
2021/05/20 00:19:52;;;;;;;12.52;11.23;;;9.00;97.40;;;;;;6215062;23;20009;-71
2021/05/20 00:22:17;;;;;;;12.98;11.30;;;9.00;97.40;;;;;;6214300;23;20031;-67
2021/05/20 00:24:43;;;;;;;13.23;11.85;;;9.00;97.50;;;;;;6213422;23;20001;-69
2021/05/20 00:27:08;;;;;;;13.05;11.73;;;9.00;97.60;;;;;;6214943;23;20066;-68
2021/05/20 00:29:34;;;;;;;14.10;12.13;;;9.00;97.60;;;;;;6213986;23;20005;-66
2021/05/20 00:31:59;;;;;;;15.13;13.00;;;9.00;97.60;;;;;;6215077;23;20062;-72
2021/05/20 00:34:25;;;;;;;14.60;13.15;;;8.90;97.60;;;;;;6215425;23;20023;-70
2021/05/20 00:36:50;;;;;;;16.55;14.93;;;9.00;97.70;;;;;;6213957;23;20106;-72
2021/05/20 00:39:16;;;;;;;16.25;14.45;;;9.00;97.70;;;;;;6214898;23;20448;-72
2021/05/20 00:41:41;;;;;;;20.58;16.73;;;9.00;97.70;;;;;;6214952;23;20369;-71
2021/05/20 00:44:07;;;;;;;19.25;16.95;;;8.90;97.70;;;;;;6214337;23;20067;-71
2021/05/20 00:46:32;;;;;;;18.33;16.42;;;9.00;97.80;;;;;;6214591;23;20492;-67
2021/05/20 00:48:58;;;;;;;19.65;16.70;;;9.00;97.80;;;;;;6215313;23;20004;-72
2021/05/20 00:51:23;;;;;;;20.90;16.40;;;9.00;97.80;;;;;;6214607;23;20338;-73
2021/05/20 00:53:50;;;;;;;18.60;16.80;;;9.00;97.80;;;;;;6214949;23;20004;-72
2021/05/20 00:56:19;;;;;;;20.55;17.38;;;8.90;97.70;;;;;;6214057;23;20005;-72
2021/05/20 00:58:45;;;;;;;20.50;18.30;;;8.90;97.80;;;;;;6214522;23;20430;-72
2021/05/20 01:01:13;;;;;;;22.08;18.67;;;8.90;97.80;;;;;;6214978;23;20008;-72
2021/05/20 01:03:39;;;;;;;20.45;18.35;;;8.90;97.90;;;;;;6214103;23;20307;-72
2021/05/20 01:06:05;;;;;;;20.92;18.52;;;8.90;97.90;;;;;;6215110;23;20012;-73
2021/05/20 01:08:31;;;;;;;21.83;19.50;;;8.90;98.00;;;;;;6214394;23;20804;-70
2021/05/20 01:10:59;;;;;;;21.50;19.25;;;8.90;98.00;;;;;;6213668;23;20434;-70
2021/05/20 01:13:24;;;;;;;23.38;20.92;;;8.90;98.00;;;;;;6214872;23;19996;-67
2021/05/20 01:15:50;;;;;;;23.20;20.38;;;8.90;98.30;;;;;;6214658;23;20039;-67
2021/05/20 01:18:16;;;;;;;22.40;20.08;;;8.90;98.00;;;;;;6213511;23;20001;-67
2021/05/20 01:20:43;;;;;;;24.92;21.40;;;8.90;98.00;;;;;;6212716;23;20058;-67
2021/05/20 01:23:16;;;;;;;25.08;22.10;;;8.90;98.10;;;;;;6214571;23;20115;-70
2021/05/20 01:25:47;;;;;;;26.50;22.25;;;8.80;98.00;;;;;;6213638;23;20322;-68
2021/05/20 01:28:20;;;;;;;26.63;23.58;;;8.80;98.10;;;;;;6214426;23;20004;-70
2021/05/20 01:30:46;;;;;;;27.58;24.35;;;8.80;98.10;;;;;;6214240;23;20445;-70
2021/05/20 01:33:12;;;;;;;27.58;24.25;;;8.80;98.30;;;;;;6213594;23;20008;-65
2021/05/20 01:35:39;;;;;;;29.10;25.13;;;8.80;98.30;;;;;;6214660;23;20326;-69
2021/05/20 01:40:56;;;;;;;34.20;28.30;;;8.80;98.50;;;;;;6214638;23;20013;-71
2021/05/20 01:43:22;;;;;;;30.10;27.00;;;8.80;98.50;;;;;;6213094;23;19997;-70
2021/05/20 01:46:06;;;;;;;32.05;28.60;;;8.80;98.50;;;;;;6213809;23;20008;-69
2021/05/20 01:48:43;;;;;;;32.97;29.23;;;8.80;98.50;;;;;;6212478;23;20053;-70
2021/05/20 01:51:12;;;;;;;36.28;29.23;;;8.80;98.60;;;;;;6213159;23;20031;-69
2021/05/20 01:53:39;;;;;;;31.67;28.20;;;8.80;98.60;;;;;;6213521;23;20001;-70
2021/05/20 01:56:06;;;;;;;38.60;29.45;;;8.80;98.60;;;;;;6214381;23;20034;-69
2021/05/20 01:58:32;;;;;;;36.63;31.58;;;8.80;98.60;;;;;;6214422;23;20027;-68
2021/05/20 02:00:58;;;;;;;35.17;31.38;;;8.80;98.60;;;;;;6213535;23;20050;-70
2021/05/20 02:03:24;;;;;;;38.72;33.22;;;8.70;98.60;;;;;;6214575;23;20004;-71
2021/05/20 02:05:50;;;;;;;36.92;31.65;;;8.70;98.70;;;;;;6213931;23;20016;-71
2021/05/20 02:08:15;;;;;;;38.22;31.95;;;8.80;98.80;;;;;;6213212;23;20009;-66
2021/05/20 02:10:42;;;;;;;42.60;33.28;;;8.70;98.80;;;;;;6214029;23;20009;-67
2021/05/20 02:13:07;;;;;;;36.72;31.67;;;8.70;98.70;;;;;;6214536;23;20000;-71
2021/05/20 02:15:33;;;;;;;40.78;33.35;;;8.80;99.00;;;;;;6213132;23;20385;-65
2021/05/20 02:17:59;;;;;;;39.08;32.22;;;8.70;99.00;;;;;;6212398;23;20012;-66
2021/05/20 02:20:25;;;;;;;38.30;31.38;;;8.70;98.80;;;;;;6214505;23;20414;-65
2021/05/20 02:22:54;;;;;;;39.03;31.58;;;8.70;98.80;;;;;;6212968;23;20005;-66
2021/05/20 02:25:19;;;;;;;35.78;30.45;;;8.80;98.90;;;;;;6214755;23;20008;-67
2021/05/20 02:27:45;;;;;;;45.75;36.38;;;8.90;98.90;;;;;;6211598;23;20008;-69
2021/05/20 02:30:13;;;;;;;46.88;37.00;;;8.90;98.90;;;;;;6214033;23;19997;-68
2021/05/20 02:32:39;;;;;;;46.72;35.70;;;8.90;98.90;;;;;;6213568;23;20423;-67
2021/05/20 02:35:06;;;;;;;47.75;35.35;;;9.00;98.90;;;;;;6212775;23;20019;-68
2021/05/20 02:37:32;;;;;;;44.10;34.42;;;9.00;98.90;;;;;;6212037;23;20032;-68
2021/05/20 02:39:57;;;;;;;49.13;36.72;;;9.10;98.90;;;;;;6212340;23;20021;-68
2021/05/20 02:42:23;;;;;;;46.38;34.85;;;9.20;98.90;;;;;;6213727;23;20008;-72
2021/05/20 02:44:49;;;;;;;43.80;33.38;;;9.20;98.80;;;;;;6213794;23;20001;-71
2021/05/20 02:47:14;;;;;;;50.42;38.80;;;9.30;98.80;;;;;;6213611;23;20016;-73
2021/05/20 02:49:40;;;;;;;47.42;36.38;;;9.30;98.80;;;;;;6212900;23;20001;-71
2021/05/20 02:52:06;;;;;;;62.60;38.97;;;9.40;98.90;;;;;;6213703;23;20001;-69
2021/05/20 02:54:31;;;;;;;100.97;35.80;;;9.40;98.90;;;;;;6213415;23;20000;-67
2021/05/20 02:56:57;;;;;;;74.38;34.65;;;9.40;98.90;;;;;;6213128;23;20032;-66
2021/05/20 02:59:23;;;;;;;98.70;32.78;;;9.50;98.90;;;;;;6213889;23;20024;-71
2021/05/20 03:01:48;;;;;;;132.00;33.55;;;9.50;98.90;;;;;;6213500;23;20005;-70
2021/05/20 03:04:14;;;;;;;112.95;30.92;;;9.50;98.90;;;;;;6212794;23;20313;-71
2021/05/20 03:06:41;;;;;;;144.45;31.98;;;9.50;98.90;;;;;;6212952;23;20024;-70
2021/05/20 03:09:08;;;;;;;92.00;29.63;;;9.40;99.00;;;;;;6213443;23;20012;-69
2021/05/20 03:11:34;;;;;;;72.47;31.27;;;9.40;99.10;;;;;;6212262;23;20084;-70
2021/05/20 03:14:00;;;;;;;170.18;32.83;;;9.40;99.10;;;;;;6212930;23;20024;-71
2021/05/20 03:16:26;;;;;;;89.50;27.20;;;9.50;99.20;;;;;;6213441;23;20004;-71
2021/05/20 03:18:51;;;;;;;194.95;33.15;;;9.50;99.10;;;;;;6211868;23;20326;-70
2021/05/20 03:21:17;;;;;;;80.25;30.42;;;9.40;99.10;;;;;;6211288;23;20028;-71
2021/05/20 03:23:43;;;;;;;93.93;27.70;;;9.50;99.20;;;;;;6211849;23;20326;-68
2021/05/20 03:26:08;;;;;;;70.93;29.77;;;9.50;99.10;;;;;;6212624;23;20020;-66
2021/05/20 03:28:34;;;;;;;125.10;29.92;;;9.50;99.10;;;;;;6213176;23;20005;-69
2021/05/20 03:31:00;;;;;;;141.68;31.35;;;9.50;99.10;;;;;;6212511;23;20496;-67
2021/05/20 03:33:25;;;;;;;80.10;30.13;;;9.50;99.10;;;;;;6212570;23;19996;-66
2021/05/20 03:35:51;;;;;;;76.85;29.40;;;9.50;99.10;;;;;;6210776;23;20016;-68
2021/05/20 03:38:16;;;;;;;83.13;28.52;;;9.50;99.00;;;;;;6212312;23;20350;-66
2021/05/20 03:40:42;;;;;;;74.50;29.52;;;9.50;99.00;;;;;;6210957;23;20011;-66
2021/05/20 03:43:07;;;;;;;53.72;29.75;;;9.50;99.00;;;;;;6212963;23;19997;-67
2021/05/20 03:45:33;;;;;;;64.43;30.95;;;9.50;98.90;;;;;;6211907;23;20012;-66
2021/05/20 03:47:58;;;;;;;44.22;31.08;;;9.50;98.90;;;;;;6213273;23;20430;-66
2021/05/20 03:50:24;;;;;;;49.92;29.33;;;9.50;98.90;;;;;;6213598;23;20007;-66
2021/05/20 03:52:49;;;;;;;59.15;28.50;;;9.60;98.90;;;;;;6212114;23;19997;-66
2021/05/20 03:55:15;;;;;;;55.97;29.63;;;9.60;98.80;;;;;;6213260;23;20012;-66
2021/05/20 03:57:40;;;;;;;46.97;29.55;;;9.60;98.70;;;;;;6211408;23;20005;-66
2021/05/20 04:00:07;;;;;;;44.75;28.08;;;9.70;98.60;;;;;;6212657;23;20104;-66
2021/05/20 04:02:32;;;;;;;44.63;27.77;;;9.60;98.50;;;;;;6213077;23;19997;-66
2021/05/20 04:04:58;;;;;;;36.95;26.80;;;9.50;98.40;;;;;;6213633;23;20012;-66
2021/05/20 04:07:24;;;;;;;42.42;27.83;;;9.60;98.40;;;;;;6212267;23;20040;-67
2021/05/20 04:09:49;;;;;;;34.67;27.13;;;9.60;98.40;;;;;;6212914;23;19997;-70
2021/05/20 04:12:15;;;;;;;36.63;25.92;;;9.60;98.40;;;;;;6213106;23;20008;-67
2021/05/20 04:14:41;;;;;;;42.65;27.77;;;9.60;98.30;;;;;;6210451;23;20441;-67
2021/05/20 04:17:06;;;;;;;37.80;28.60;;;9.60;98.30;;;;;;6213114;23;20028;-67
2021/05/20 04:19:32;;;;;;;37.25;28.58;;;9.50;98.30;;;;;;6213730;23;20322;-67
2021/05/20 04:21:57;;;;;;;45.40;30.00;;;9.60;98.30;;;;;;6212256;23;20020;-66
2021/05/20 04:24:24;;;;;;;39.70;26.63;;;9.70;98.20;;;;;;6213100;23;20007;-66
2021/05/20 04:26:52;;;;;;;41.50;27.30;;;9.70;98.10;;;;;;6212483;23;20353;-66
2021/05/20 04:29:21;;;;;;;39.15;28.73;;;9.60;98.10;;;;;;6212338;23;20119;-66
2021/05/20 04:31:47;;;;;;;49.83;28.13;;;9.70;98.10;;;;;;6213085;23;20004;-67
2021/05/20 04:34:13;;;;;;;60.75;29.60;;;9.70;98.10;;;;;;6212755;23;20031;-68
2021/05/20 04:36:39;;;;;;;44.50;30.25;;;9.80;98.00;;;;;;6212940;23;20050;-71
2021/05/20 04:39:05;;;;;;;34.63;25.98;;;9.80;97.90;;;;;;6212990;23;20080;-70
2021/05/20 04:41:31;;;;;;;37.58;26.33;;;9.90;97.90;;;;;;6212285;23;20032;-67
2021/05/20 04:43:59;;;;;;;36.67;26.30;;;9.90;97.70;;;;;;6213150;23;20008;-67
2021/05/20 04:46:24;;;;;;;37.42;25.75;;;9.90;97.80;;;;;;6212960;23;20329;-67
2021/05/20 04:48:50;;;;;;;39.25;27.63;;;9.90;97.70;;;;;;6211954;23;20055;-68
2021/05/20 04:51:17;;;;;;;40.55;26.80;;;9.90;97.60;;;;;;6211361;23;20003;-69
2021/05/20 04:53:43;;;;;;;35.80;26.98;;;9.90;97.50;;;;;;6212794;23;20078;-71
2021/05/20 04:56:09;;;;;;;33.75;26.17;;;9.90;97.40;;;;;;6212504;23;20421;-70
2021/05/20 04:58:34;;;;;;;44.13;27.65;;;9.90;97.30;;;;;;6214549;23;19996;-70
2021/05/20 05:01:00;;;;;;;50.58;27.58;;;9.90;97.40;;;;;;6214901;23;20004;-71
2021/05/20 05:03:26;;;;;;;47.55;29.38;;;9.90;97.30;;;;;;6214003;23;20005;-72
2021/05/20 05:05:53;;;;;;;199.05;36.65;;;9.90;97.30;;;;;;6214623;23;20013;-73
2021/05/20 05:08:19;;;;;;;51.65;33.42;;;10.00;97.50;;;;;;6214271;23;20023;-72
2021/05/20 05:10:45;;;;;;;64.90;34.08;;;10.00;97.40;;;;;;6213875;23;20005;-72
2021/05/20 05:13:10;;;;;;;41.72;30.17;;;10.10;97.50;;;;;;6214949;23;19997;-71
2021/05/20 05:15:36;;;;;;;42.65;29.88;;;10.20;97.40;;;;;;6214591;23;20004;-72
2021/05/20 05:18:01;;;;;;;48.50;31.05;;;10.30;97.30;;;;;;6212311;23;20303;-72
2021/05/20 05:20:27;;;;;;;49.15;31.10;;;10.30;97.10;;;;;;6214949;23;20005;-72
2021/05/20 05:22:52;;;;;;;41.72;29.67;;;10.30;96.90;;;;;;6214047;23;20001;-70
2021/05/20 05:25:18;;;;;;;39.85;29.63;;;10.20;97.00;;;;;;6207525;23;20394;-67
2021/05/20 05:27:44;;;;;;;38.53;28.60;;;10.30;97.20;;;;;;6213464;23;20421;-67
2021/05/20 05:30:10;;;;;;;39.72;27.67;;;10.40;97.10;;;;;;6214079;23;20005;-68
2021/05/20 05:32:35;;;;;;;37.90;29.38;;;10.50;97.00;;;;;;6213392;23;20126;-68
2021/05/20 05:35:01;;;;;;;40.95;28.33;;;10.60;96.90;;;;;;6214509;23;20036;-68
2021/05/20 05:37:27;;;;;;;37.13;28.67;;;10.70;96.80;;;;;;6213739;23;20012;-66
2021/05/20 05:39:53;;;;;;;42.35;30.23;;;10.80;96.50;;;;;;6213213;23;20020;-67
2021/05/20 05:42:18;;;;;;;44.28;30.63;;;10.90;96.40;;;;;;6214115;23;20316;-67
2021/05/20 05:44:44;;;;;;;42.60;32.03;;;11.00;96.30;;;;;;6213164;23;20001;-67
2021/05/20 05:47:10;;;;;;;40.63;30.70;;;11.10;96.20;;;;;;6214132;23;20013;-67
2021/05/20 05:49:45;;;;;;;36.40;28.83;;;11.20;96.00;;;;;;6214196;23;20322;-68
2021/05/20 05:52:16;;;;;;;71.50;29.73;;;11.20;96.00;;;;;;6213552;23;20008;-66
2021/05/20 05:54:42;;;;;;;40.15;28.80;;;11.20;95.90;;;;;;6212189;23;20001;-68
2021/05/20 05:57:08;;;;;;;36.40;27.95;;;11.30;95.80;;;;;;6212281;23;20436;-69
2021/05/20 05:59:33;;;;;;;36.63;28.48;;;11.30;95.70;;;;;;6211233;23;20088;-70
2021/05/20 06:01:59;;;;;;;38.67;26.90;;;11.40;95.50;;;;;;6213545;23;20008;-68
2021/05/20 06:04:25;;;;;;;42.05;28.10;;;11.40;95.30;;;;;;6214358;23;19997;-72
2021/05/20 06:06:51;;;;;;;99.35;32.15;;;11.40;95.40;;;;;;6212833;23;20013;-71
2021/05/20 06:09:16;;;;;;;44.97;30.35;;;11.40;95.40;;;;;;6213501;23;20020;-71
2021/05/20 06:11:45;;;;;;;40.65;27.40;;;11.50;95.40;;;;;;6213752;23;20000;-72
2021/05/20 06:14:11;;;;;;;38.97;26.45;;;11.60;95.30;;;;;;6211680;23;20063;-74
2021/05/20 06:16:40;;;;;;;49.05;25.77;;;11.70;95.20;;;;;;6213233;23;20008;-72
2021/05/20 06:19:07;;;;;;;38.17;25.83;;;11.70;95.10;;;;;;6213567;23;20001;-75
2021/05/20 06:21:32;;;;;;;37.35;24.92;;;11.70;95.20;;;;;;6212634;23;20000;-74
2021/05/20 06:23:58;;;;;;;35.30;24.38;;;11.70;95.10;;;;;;6214084;23;20007;-74
2021/05/20 06:26:25;;;;;;;37.03;25.75;;;11.80;95.10;;;;;;6212658;23;20008;-73
2021/05/20 06:28:51;;;;;;;30.67;23.15;;;11.90;94.90;;;;;;6213109;23;20000;-71
2021/05/20 06:31:17;;;;;;;31.88;23.65;;;12.00;94.60;;;;;;6212000;23;20015;-71
2021/05/20 06:33:42;;;;;;;31.05;22.92;;;12.00;94.10;;;;;;6213649;23;20058;-72
2021/05/20 06:36:08;;;;;;;32.83;24.45;;;12.10;94.10;;;;;;6212886;23;20480;-72
2021/05/20 06:38:34;;;;;;;32.05;23.95;;;12.20;94.10;;;;;;6213596;23;20004;-69
2021/05/20 06:41:02;;;;;;;31.92;23.90;;;12.20;93.90;;;;;;6213066;23;20439;-71
2021/05/20 06:43:28;;;;;;;30.65;23.38;;;12.30;93.90;;;;;;6212856;23;20419;-72
2021/05/20 06:45:54;;;;;;;31.55;24.02;;;12.30;93.40;;;;;;6212065;23;20078;-72
2021/05/20 06:48:19;;;;;;;30.15;23.52;;;12.40;93.40;;;;;;6213427;23;20028;-72
2021/05/20 06:50:45;;;;;;;34.25;22.88;;;12.40;93.40;;;;;;6213632;23;20051;-73
2021/05/20 06:53:11;;;;;;;36.00;23.67;;;12.40;93.50;;;;;;6212039;23;20452;-71
2021/05/20 06:55:37;;;;;;;31.17;22.10;;;12.50;92.90;;;;;;6213137;23;20362;-71
2021/05/20 07:00:33;;;;;;;31.95;23.05;;;12.60;92.70;;;;;;6224373;23;20020;-73
2021/05/20 07:02:58;;;;;;;35.03;23.67;;;12.70;92.60;;;;;;6211347;23;20007;-71
2021/05/20 07:05:25;;;;;;;35.67;23.65;;;12.70;92.70;;;;;;6213867;23;20005;-71
2021/05/20 07:07:51;;;;;;;38.22;24.48;;;12.80;92.60;;;;;;6211432;23;20020;-73
2021/05/20 07:10:17;;;;;;;35.33;24.27;;;12.80;92.40;;;;;;6211028;23;20004;-72
2021/05/20 07:12:42;;;;;;;31.95;22.52;;;12.90;92.30;;;;;;6213372;23;20011;-72
2021/05/20 07:15:09;;;;;;;35.17;23.77;;;13.00;92.10;;;;;;6213614;23;20054;-73
2021/05/20 07:17:34;;;;;;;35.50;24.88;;;12.90;91.80;;;;;;6212467;23;20031;-72
2021/05/20 07:20:00;;;;;;;34.38;24.63;;;12.90;91.90;;;;;;6213210;23;20429;-72
2021/05/20 07:22:27;;;;;;;37.13;25.20;;;12.90;92.00;;;;;;6213862;23;20013;-72
2021/05/20 07:24:53;;;;;;;36.38;25.30;;;12.90;91.70;;;;;;6212469;23;20035;-72
2021/05/20 07:27:18;;;;;;;45.42;31.48;;;13.00;91.70;;;;;;6213064;23;20017;-72
2021/05/20 07:29:44;;;;;;;44.42;34.03;;;13.00;91.60;;;;;;6211744;23;20409;-71
2021/05/20 07:32:15;;;;;;;48.75;36.80;;;13.00;91.50;;;;;;6212780;23;20079;-72
2021/05/20 07:34:41;;;;;;;55.08;40.00;;;13.10;91.50;;;;;;6213097;23;20552;-69
2021/05/20 07:37:07;;;;;;;53.40;39.17;;;13.20;91.30;;;;;;6212428;23;20032;-69
2021/05/20 07:39:33;;;;;;;54.75;39.08;;;13.10;91.50;;;;;;6213215;23;19997;-68
2021/05/20 07:41:58;;;;;;;52.85;37.95;;;13.20;91.40;;;;;;6213309;23;20011;-69
2021/05/20 07:44:24;;;;;;;56.90;38.92;;;13.20;91.70;;;;;;6212758;23;20000;-70
2021/05/20 07:46:50;;;;;;;55.22;38.45;;;13.20;91.40;;;;;;6212894;23;20619;-69
2021/05/20 07:49:15;;;;;;;59.08;40.97;;;13.30;91.50;;;;;;6213192;23;19996;-69
2021/05/20 07:51:41;;;;;;;57.75;41.72;;;13.50;91.50;;;;;;6212201;23;20001;-70
2021/05/20 07:54:07;;;;;;;57.95;38.60;;;13.60;91.20;;;;;;6213226;23;19996;-69
2021/05/20 07:56:34;;;;;;;57.35;40.95;;;13.70;91.00;;;;;;6212989;23;20032;-69
2021/05/20 07:58:59;;;;;;;56.13;39.08;;;13.70;90.90;;;;;;6212419;23;20357;-70
2021/05/20 08:01:26;;;;;;;55.75;38.22;;;13.70;91.00;;;;;;6211775;23;20035;-69
2021/05/20 08:04:07;;;;;;;55.10;40.97;;;13.80;91.00;;;;;;6212943;23;20031;-69
2021/05/20 08:06:56;;;;;;;58.17;42.17;;;13.90;90.80;;;;;;6212101;23;20008;-70
2021/05/20 08:09:28;;;;;;;53.00;39.22;;;14.00;90.80;;;;;;6212301;23;20392;-69
2021/05/20 08:11:53;;;;;;;53.97;39.15;;;14.20;91.00;;;;;;6211355;23;20009;-69
2021/05/20 08:14:19;;;;;;;55.88;39.63;;;14.40;90.40;;;;;;6212686;23;20027;-70
2021/05/20 08:16:45;;;;;;;56.03;39.83;;;14.50;90.10;;;;;;6212891;23;20000;-69
2021/05/20 08:19:10;;;;;;;48.63;35.97;;;14.60;89.30;;;;;;6213378;23;20001;-70
2021/05/20 08:21:36;;;;;;;46.53;34.92;;;14.50;88.90;;;;;;6212091;23;20449;-69
2021/05/20 08:24:03;;;;;;;47.40;35.72;;;14.40;89.30;;;;;;6213067;23;20012;-71
2021/05/20 08:26:29;;;;;;;45.53;33.65;;;14.40;89.10;;;;;;6212496;23;20019;-70
2021/05/20 08:28:54;;;;;;;44.85;32.95;;;14.50;88.90;;;;;;6212631;23;20001;-70
2021/05/20 08:31:20;;;;;;;45.83;33.63;;;14.70;89.00;;;;;;6213395;23;20107;-70
2021/05/20 08:33:46;;;;;;;44.90;33.33;;;14.80;88.10;;;;;;6214008;23;20000;-72
2021/05/20 08:36:12;;;;;;;45.42;33.45;;;14.90;86.90;;;;;;6214881;23;20027;-73
2021/05/20 08:38:38;;;;;;;42.55;32.85;;;15.00;86.10;;;;;;6213169;23;20027;-69
2021/05/20 08:41:04;;;;;;;44.75;33.65;;;14.90;85.30;;;;;;6214272;23;20012;-71
2021/05/20 08:43:30;;;;;;;50.20;34.97;;;14.90;86.70;;;;;;6215128;23;20004;-71
2021/05/20 08:45:55;;;;;;;44.70;32.72;;;15.10;87.50;;;;;;6215027;23;20150;-70
2021/05/20 08:48:21;;;;;;;41.85;32.20;;;15.10;86.20;;;;;;6214483;23;20004;-71
2021/05/20 08:50:47;;;;;;;44.38;32.20;;;15.00;85.90;;;;;;6214634;23;20030;-70
2021/05/20 08:53:13;;;;;;;37.05;29.00;;;15.00;86.50;;;;;;6215105;23;20005;-72
2021/05/20 08:55:39;;;;;;;35.17;27.63;;;15.00;86.50;;;;;;6214007;23;20366;-72
2021/05/20 08:58:08;;;;;;;36.35;28.33;;;15.10;86.20;;;;;;6214651;23;20000;-72
2021/05/20 09:00:34;;;;;;;37.50;29.10;;;15.30;85.50;;;;;;6213018;23;20008;-73
2021/05/20 09:03:11;;;;;;;39.80;29.77;;;15.30;84.70;;;;;;6214181;23;20001;-72
2021/05/20 09:05:37;;;;;;;36.92;27.98;;;15.30;85.70;;;;;;6214824;23;20066;-72
2021/05/20 09:08:08;;;;;;;33.13;25.83;;;15.30;84.70;;;;;;6214470;23;20013;-72
2021/05/20 09:10:35;;;;;;;30.45;23.75;;;15.30;84.60;;;;;;6214060;23;20021;-71
2021/05/20 09:13:03;;;;;;;30.08;23.48;;;15.30;84.00;;;;;;6213492;23;20134;-71
2021/05/20 09:15:34;;;;;;;29.85;23.50;;;15.40;84.00;;;;;;6213348;23;20325;-72
2021/05/20 09:18:21;;;;;;;26.58;22.58;;;15.60;84.30;;;;;;6212781;23;20460;-71
2021/05/20 09:20:58;;;;;;;25.67;21.58;;;15.90;83.10;;;;;;6214796;23;20047;-72
2021/05/20 09:23:31;;;;;;;26.02;21.92;;;16.00;81.90;;;;;;6214328;23;20001;-72
2021/05/20 09:26:05;;;;;;;26.13;22.67;;;16.20;81.70;;;;;;6214300;23;20020;-72
2021/05/20 09:28:34;;;;;;;27.65;23.02;;;16.30;81.10;;;;;;6214515;23;20432;-72
2021/05/20 09:31:00;;;;;;;24.05;20.40;;;16.40;81.00;;;;;;6213792;23;20051;-70
2021/05/20 09:33:27;;;;;;;24.60;19.58;;;16.40;80.80;;;;;;6213473;23;20329;-70
2021/05/20 09:35:52;;;;;;;25.73;20.35;;;16.60;81.30;;;;;;6214330;23;20008;-72
2021/05/20 09:38:27;;;;;;;22.45;20.08;;;16.70;79.60;;;;;;6213628;23;20011;-71
2021/05/20 09:41:06;;;;;;;21.88;19.50;;;16.70;79.50;;;;;;6214311;23;20009;-71
2021/05/20 09:43:39;;;;;;;25.23;20.98;;;16.70;80.50;;;;;;6212940;23;20015;-72
2021/05/20 09:46:11;;;;;;;24.33;20.50;;;16.60;79.10;;;;;;6214301;23;20008;-70
2021/05/20 09:48:40;;;;;;;25.77;20.73;;;16.40;79.80;;;;;;6212648;23;19997;-71
2021/05/20 09:51:07;;;;;;;25.23;21.98;;;16.40;80.30;;;;;;6213577;23;20418;-72
2021/05/20 09:53:45;;;;;;;24.30;21.05;;;16.50;81.40;;;;;;6214111;23;20007;-70
2021/05/20 09:56:11;;;;;;;20.95;18.27;;;16.60;80.10;;;;;;6214484;23;20032;-70
2021/05/20 09:58:36;;;;;;;21.58;19.00;;;16.60;79.70;;;;;;6213567;23;20091;-72
2021/05/20 10:01:16;;;;;;;20.15;17.80;;;16.70;79.90;;;;;;6214566;23;20425;-70
2021/05/20 10:03:53;;;;;;;18.98;15.75;;;16.70;79.70;;;;;;6212406;23;20079;-71
2021/05/20 10:06:42;;;;;;;16.75;14.98;;;16.80;79.30;;;;;;6211506;23;20016;-71
2021/05/20 10:09:12;;;;;;;15.88;14.27;;;16.80;77.40;;;;;;6213959;23;20455;-72
2021/05/20 10:11:39;;;;;;;15.93;14.20;;;16.80;77.70;;;;;;6213917;23;20444;-71
2021/05/20 10:14:05;;;;;;;18.15;16.23;;;16.70;78.30;;;;;;6213334;23;20004;-71
2021/05/20 10:16:33;;;;;;;17.25;15.45;;;16.70;78.20;;;;;;6213995;23;20410;-69
2021/05/20 10:18:59;;;;;;;19.55;17.60;;;16.50;78.50;;;;;;6213187;23;20448;-70
2021/05/20 10:21:26;;;;;;;18.98;17.02;;;16.40;79.10;;;;;;6214360;23;20024;-71
2021/05/20 10:23:52;;;;;;;16.85;15.05;;;16.40;80.10;;;;;;6213711;23;20111;-71
2021/05/20 10:26:18;;;;;;;16.65;15.05;;;16.60;81.10;;;;;;6213220;23;20489;-73
2021/05/20 10:28:45;;;;;;;17.63;15.82;;;16.90;80.00;;;;;;6213624;23;20024;-72
2021/05/20 10:31:11;;;;;;;16.52;14.82;;;17.10;79.50;;;;;;6214403;23;20000;-71
2021/05/20 10:33:37;;;;;;;15.75;14.15;;;17.20;78.60;;;;;;6213239;23;19997;-71
2021/05/20 10:36:03;;;;;;;15.98;14.38;;;17.10;76.30;;;;;;6213942;23;20001;-70
2021/05/20 10:38:29;;;;;;;17.23;14.82;;;17.00;76.70;;;;;;6213998;23;20012;-69
2021/05/20 10:41:18;;;;;;;15.15;13.60;;;16.80;76.50;;;;;;6211096;23;20314;-71
2021/05/20 10:43:49;;;;;;;15.90;14.15;;;16.60;78.60;;;;;;6214317;23;20001;-71
2021/05/20 10:46:16;;;;;;;15.68;14.02;;;16.60;78.60;;;;;;6213682;23;20023;-72
2021/05/20 10:48:54;;;;;;;14.82;13.27;;;16.60;80.30;;;;;;6212549;23;20031;-71
2021/05/20 10:51:23;;;;;;;15.63;13.90;;;16.60;79.70;;;;;;6214111;23;20009;-71
2021/05/20 10:54:04;;;;;;;15.77;14.18;;;16.60;78.10;;;;;;6213515;23;20402;-71
2021/05/20 10:56:29;;;;;;;16.67;13.45;;;16.60;78.00;;;;;;6214148;23;20505;-72
2021/05/20 10:58:57;;;;;;;14.90;13.40;;;16.50;78.30;;;;;;6213313;23;20174;-69
2021/05/20 11:01:24;;;;;;;13.85;12.45;;;16.50;78.60;;;;;;6213003;23;20005;-70
2021/05/20 11:04:05;;;;;;;15.05;13.48;;;16.50;79.40;;;;;;6213228;23;20012;-70
2021/05/20 11:06:44;;;;;;;17.60;13.32;;;16.70;79.10;;;;;;6212454;23;20020;-70
2021/05/20 11:09:17;;;;;;;15.50;13.90;;;16.90;79.40;;;;;;6212735;23;20020;-72
2021/05/20 11:11:42;;;;;;;20.23;15.63;;;16.90;79.40;;;;;;6213618;23;20004;-71
2021/05/20 11:14:14;;;;;;;17.73;16.02;;;16.90;78.60;;;;;;6213588;23;20322;-71
2021/05/20 11:16:41;;;;;;;18.98;16.98;;;16.90;79.10;;;;;;6212567;23;20401;-71
2021/05/20 11:19:19;;;;;;;21.58;18.08;;;17.00;78.70;;;;;;6213451;23;20000;-71
2021/05/20 11:24:31;;;;;;;19.42;17.38;;;17.10;78.50;;;;;;6213174;23;20059;-72
2021/05/20 11:26:59;;;;;;;20.88;18.52;;;17.30;78.20;;;;;;6211558;23;20100;-72
2021/05/20 11:29:26;;;;;;;20.20;18.10;;;17.30;78.40;;;;;;6212818;23;20024;-69
2021/05/20 11:32:00;;;;;;;22.00;18.83;;;17.30;76.90;;;;;;6213228;23;20004;-69
2021/05/20 11:34:49;;;;;;;20.33;18.05;;;17.30;77.50;;;;;;6213585;23;20076;-71
2021/05/20 11:37:31;;;;;;;23.02;20.58;;;17.40;78.00;;;;;;6212515;23;20008;-70
2021/05/20 11:39:57;;;;;;;24.70;21.02;;;17.60;75.90;;;;;;6213273;23;19997;-70
2021/05/20 11:42:28;;;;;;;26.88;22.60;;;17.60;75.80;;;;;;6213377;23;20012;-70
2021/05/20 11:44:56;;;;;;;24.27;20.92;;;17.50;74.70;;;;;;6212448;23;19997;-70
2021/05/20 11:47:23;;;;;;;27.58;22.48;;;17.50;76.00;;;;;;6213191;23;20039;-69
2021/05/20 11:49:49;;;;;;;29.10;21.92;;;17.80;75.60;;;;;;6213315;23;20004;-70
2021/05/20 11:52:17;;;;;;;30.45;23.02;;;17.90;72.90;;;;;;6212441;23;20015;-70
2021/05/20 11:54:49;;;;;;;23.13;20.50;;;17.90;71.60;;;;;;6211350;23;20440;-70
2021/05/20 11:57:17;;;;;;;30.42;21.33;;;17.80;72.20;;;;;;6211436;23;20011;-70
2021/05/20 11:59:45;;;;;;;25.65;19.15;;;17.90;71.60;;;;;;6210555;23;20036;-70
2021/05/20 12:02:20;;;;;;;24.38;21.77;;;18.00;72.20;;;;;;6213269;23;20283;-70
2021/05/20 12:04:47;;;;;;;27.83;22.42;;;18.10;71.00;;;;;;6212176;23;20365;-70
2021/05/20 12:07:27;;;;;;;27.95;22.65;;;18.10;71.20;;;;;;6212692;23;20009;-69
2021/05/20 12:09:55;;;;;;;26.67;21.45;;;18.20;71.70;;;;;;6213331;23;20660;-69
2021/05/20 12:12:21;;;;;;;26.05;21.92;;;18.20;71.00;;;;;;6212345;23;20027;-69
2021/05/20 12:14:48;;;;;;;27.85;22.88;;;18.40;72.30;;;;;;6212712;23;20072;-72
2021/05/20 12:17:22;;;;;;;28.10;23.02;;;18.60;72.50;;;;;;6212944;23;20031;-70
2021/05/20 12:19:52;;;;;;;26.75;22.20;;;18.80;71.50;;;;;;6210348;23;20374;-69
2021/05/20 12:22:28;;;;;;;24.13;20.03;;;18.90;70.30;;;;;;6213026;23;20063;-69
2021/05/20 12:25:05;;;;;;;22.70;19.13;;;19.00;69.20;;;;;;6212637;23;19996;-70
2021/05/20 12:27:37;;;;;;;21.33;19.02;;;19.00;69.70;;;;;;6212063;23;20009;-69
2021/05/20 12:30:05;;;;;;;;;;;19.10;69.90;;;;;;6213404;23;20001;-69
2021/05/20 12:32:41;;;;;;;21.23;18.30;;;19.20;69.30;;;;;;6212144;23;20458;-70
2021/05/20 12:35:29;;;;;;;22.25;20.02;;;19.20;69.80;;;;;;6213252;23;20007;-72
2021/05/20 12:38:09;;;;;;;21.88;19.55;;;19.20;68.50;;;;;;6212486;23;20096;-71
2021/05/20 12:40:39;;;;;;;21.65;19.35;;;19.00;66.50;;;;;;6211836;23;20066;-72